createdAt,value
2018-04-23T00:02:08.260Z,9.60
2018-04-23T00:04:36.515Z,5.63
2018-04-23T00:07:05.524Z,5.23
2018-04-23T00:09:33.784Z,5.87
2018-04-23T00:12:02.821Z,4.77
2018-04-23T00:14:31.051Z,4.63
2018-04-23T00:16:59.320Z,7.57
2018-04-23T00:19:28.321Z,4.13
2018-04-23T00:21:57.338Z,6.23
2018-04-23T00:24:25.608Z,5.63
2018-04-23T00:26:53.874Z,8.60
2018-04-23T00:29:22.913Z,6.23
2018-04-23T00:31:51.205Z,5.93
2018-04-23T00:34:19.481Z,6.93
2018-04-23T00:36:47.734Z,8.33
2018-04-23T00:39:15.999Z,5.70
2018-04-23T00:41:44.251Z,4.00
2018-04-23T00:44:13.361Z,5.93
2018-04-23T00:46:41.554Z,7.93
2018-04-23T00:49:09.805Z,6.20
2018-04-23T00:51:38.069Z,8.13
2018-04-23T00:54:07.079Z,6.23
2018-04-23T00:56:35.352Z,8.13
2018-04-23T00:59:03.599Z,7.40
2018-04-23T01:01:32.630Z,5.97
2018-04-23T01:04:00.882Z,5.93
2018-04-23T01:06:29.906Z,7.63
2018-04-23T01:08:58.159Z,6.13
2018-04-23T01:11:26.422Z,5.60
2018-04-23T01:13:55.433Z,5.73
2018-04-23T01:16:23.699Z,4.83
2018-04-23T01:18:52.723Z,5.47
2018-04-23T01:21:20.949Z,4.40
2018-04-23T01:23:49.211Z,5.33
2018-04-23T01:26:18.394Z,7.23
2018-04-23T01:28:46.670Z,7.07
2018-04-23T01:31:15.702Z,6.73
2018-04-23T01:33:44.724Z,6.77
2018-04-23T01:36:12.979Z,5.63
2018-04-23T01:38:41.277Z,8.00
2018-04-23T01:41:09.518Z,5.93
2018-04-23T01:43:37.771Z,6.77
2018-04-23T01:46:06.040Z,9.03
2018-04-23T01:48:34.278Z,8.67
2018-04-23T01:51:02.552Z,7.00
2018-04-23T01:53:30.783Z,4.23
2018-04-23T01:55:59.043Z,5.60
2018-04-23T01:58:27.289Z,5.70
2018-04-23T02:00:55.585Z,5.63
2018-04-23T02:03:23.847Z,8.13
2018-04-23T02:05:52.109Z,6.40
2018-04-23T02:08:20.369Z,7.10
2018-04-23T02:10:49.416Z,6.00
2018-04-23T02:13:17.672Z,6.77
2018-04-23T02:15:45.935Z,4.97
2018-04-23T02:18:14.169Z,8.00
2018-04-23T02:20:42.426Z,6.77
2018-04-23T02:23:10.684Z,5.13
2018-04-23T02:25:38.950Z,5.80
2018-04-23T02:28:07.223Z,9.13
2018-04-23T02:30:35.470Z,4.53
2018-04-23T02:33:04.493Z,4.57
2018-04-23T02:35:32.741Z,6.33
2018-04-23T02:38:01.780Z,6.87
2018-04-23T02:40:30.014Z,9.27
2018-04-23T02:42:58.282Z,5.10
2018-04-23T02:45:27.312Z,8.33
2018-04-23T02:47:55.583Z,8.60
2018-04-23T02:50:23.838Z,11.67
2018-04-23T02:52:52.100Z,9.50
2018-04-23T02:55:21.139Z,6.77
2018-04-23T02:57:49.411Z,8.47
2018-04-23T03:00:17.663Z,5.93
2018-04-23T03:02:45.918Z,7.53
2018-04-23T03:05:14.951Z,6.60
2018-04-23T03:07:43.203Z,6.03
2018-04-23T03:10:12.218Z,6.97
2018-04-23T03:12:40.465Z,6.83
2018-04-23T03:15:09.505Z,5.80
2018-04-23T03:17:37.783Z,5.17
2018-04-23T03:20:06.043Z,7.57
2018-04-23T03:22:34.297Z,8.53
2018-04-23T03:25:02.552Z,6.10
2018-04-23T03:27:31.586Z,9.40
2018-04-23T03:29:59.835Z,10.43
2018-04-23T03:32:28.863Z,6.70
2018-04-23T03:34:57.103Z,6.60
2018-04-23T03:37:26.127Z,5.77
2018-04-23T03:39:54.373Z,7.50
2018-04-23T03:42:23.405Z,8.10
2018-04-23T03:44:51.658Z,4.73
2018-04-23T03:47:19.932Z,6.70
2018-04-23T03:49:48.171Z,6.37
2018-04-23T03:52:16.417Z,7.17
2018-04-23T03:54:44.693Z,5.87
2018-04-23T03:57:12.962Z,6.37
2018-04-23T03:59:41.215Z,11.10
2018-04-23T04:02:09.480Z,6.10
2018-04-23T04:04:38.512Z,9.83
2018-04-23T04:07:06.770Z,8.13
2018-04-23T04:09:35.024Z,10.93
2018-04-23T04:12:15.198Z,18.07
2018-04-23T04:14:55.230Z,11.77
2018-04-23T04:20:35.124Z,13.23
2018-04-23T04:23:03.383Z,12.17
2018-04-23T04:25:31.679Z,7.40
2018-04-23T04:27:59.954Z,5.23
2018-04-23T04:30:28.232Z,8.27
2018-04-23T04:32:56.491Z,7.57
2018-04-23T04:35:24.798Z,11.50
2018-04-23T04:37:52.991Z,6.37
2018-04-23T04:40:21.251Z,11.10
2018-04-23T04:42:49.530Z,13.70
2018-04-23T04:45:17.814Z,6.77
2018-04-23T04:47:46.053Z,10.00
2018-04-23T04:50:14.325Z,11.17
2018-04-23T04:52:42.577Z,17.20
2018-04-23T04:55:11.594Z,6.83
2018-04-23T04:57:39.850Z,11.03
2018-04-23T05:00:08.899Z,7.43
2018-04-23T05:02:37.162Z,12.00
2018-04-23T05:05:05.393Z,5.60
2018-04-23T05:07:34.410Z,5.90
2018-04-23T05:10:02.657Z,9.77
2018-04-23T05:12:31.720Z,12.23
2018-04-23T05:14:59.977Z,10.23
2018-04-23T05:17:28.250Z,7.20
2018-04-23T05:19:56.498Z,13.67
2018-04-23T05:22:24.769Z,27.13
2018-04-23T05:24:53.795Z,11.50
2018-04-23T05:27:22.050Z,10.17
2018-04-23T05:29:50.303Z,9.17
2018-04-23T05:32:19.335Z,7.63
2018-04-23T05:34:47.587Z,7.87
2018-04-23T05:37:16.613Z,7.03
2018-04-23T05:39:44.850Z,7.67
2018-04-23T05:42:13.907Z,8.33
2018-04-23T05:44:42.156Z,6.40
2018-04-23T05:47:10.409Z,8.00
2018-04-23T05:49:38.699Z,14.97
2018-04-23T05:52:06.953Z,12.40
2018-04-23T05:54:35.240Z,8.97
2018-04-23T05:57:03.481Z,8.93
2018-04-23T05:59:31.723Z,7.23
2018-04-23T06:02:00.007Z,9.53
2018-04-23T06:04:28.267Z,10.10
2018-04-23T06:06:56.562Z,11.13
2018-04-23T06:09:24.839Z,11.60
2018-04-23T06:11:53.107Z,8.13
2018-04-23T06:14:21.430Z,13.83
2018-04-23T06:16:49.635Z,14.40
2018-04-23T06:19:17.890Z,7.93
2018-04-23T06:21:46.918Z,11.40
2018-04-23T06:24:15.161Z,7.00
2018-04-23T06:26:43.434Z,9.97
2018-04-23T06:29:12.460Z,11.27
2018-04-23T06:31:40.759Z,11.20
2018-04-23T06:34:09.004Z,10.97
2018-04-23T06:36:37.313Z,8.73
2018-04-23T06:39:06.494Z,8.03
2018-04-23T06:41:34.784Z,12.47
2018-04-23T06:44:03.042Z,9.23
2018-04-23T06:46:31.321Z,10.50
2018-04-23T06:48:59.692Z,14.77
2018-04-23T06:51:27.983Z,9.47
2018-04-23T06:53:56.254Z,8.63
2018-04-23T06:56:24.522Z,9.27
2018-04-23T06:58:53.234Z,11.77
2018-04-23T07:01:22.254Z,10.70
2018-04-23T07:03:50.579Z,14.73
2018-04-23T07:06:19.249Z,10.73
2018-04-23T07:08:47.539Z,11.40
2018-04-23T07:11:15.802Z,15.13
2018-04-23T07:13:44.068Z,14.97
2018-04-23T07:16:13.088Z,15.00
2018-04-23T07:18:41.336Z,12.80
2018-04-23T07:21:09.607Z,12.33
2018-04-23T07:23:37.888Z,14.90
2018-04-23T07:26:06.913Z,15.63
2018-04-23T07:28:35.198Z,14.10
2018-04-23T07:31:03.497Z,14.60
2018-04-23T07:33:31.774Z,10.87
2018-04-23T07:36:00.027Z,12.93
2018-04-23T07:38:28.290Z,16.33
2018-04-23T07:40:56.618Z,12.77
2018-04-23T07:43:24.853Z,16.57
2018-04-23T07:45:53.149Z,28.10
2018-04-23T07:48:22.187Z,14.63
2018-04-23T07:50:51.253Z,36.40
2018-04-23T07:53:19.530Z,23.60
2018-04-23T07:55:47.821Z,25.60
2018-04-23T07:58:16.877Z,15.37
2018-04-23T08:00:45.134Z,16.80
2018-04-23T08:03:13.433Z,26.57
2018-04-23T08:05:41.671Z,19.20
2018-04-23T08:08:09.974Z,24.53
2018-04-23T08:10:38.235Z,19.57
2018-04-23T08:13:06.534Z,29.00
2018-04-23T08:15:34.785Z,19.90
2018-04-23T08:18:03.054Z,18.30
2018-04-23T08:20:31.410Z,15.53
2018-04-23T08:23:00.419Z,20.17
2018-04-23T08:25:28.715Z,12.83
2018-04-23T08:27:56.974Z,19.10
2018-04-23T08:30:25.987Z,13.13
2018-04-23T08:32:54.969Z,14.43
2018-04-23T08:35:23.279Z,17.00
2018-04-23T08:37:51.569Z,12.30
2018-04-23T08:40:19.823Z,12.67
2018-04-23T08:42:48.125Z,11.27
2018-04-23T08:45:16.393Z,11.37
2018-04-23T08:47:44.643Z,11.70
2018-04-23T08:50:12.928Z,11.40
2018-04-23T08:52:41.206Z,12.47
2018-04-23T08:55:09.479Z,9.13
2018-04-23T08:57:37.753Z,7.00
2018-04-23T09:00:06.052Z,7.27
2018-04-23T09:02:34.256Z,9.90
2018-04-23T09:05:03.306Z,8.03
2018-04-23T09:07:31.696Z,12.53
2018-04-23T09:09:59.991Z,6.30
2018-04-23T09:12:28.260Z,7.63
2018-04-23T09:14:56.534Z,8.90
2018-04-23T09:17:25.005Z,10.33
2018-04-23T09:19:53.304Z,12.03
2018-04-23T09:22:21.601Z,12.33
2018-04-23T09:24:49.955Z,9.43
2018-04-23T09:27:18.193Z,8.77
2018-04-23T09:29:46.544Z,28.80
2018-04-23T09:32:14.814Z,10.53
2018-04-23T09:34:43.089Z,12.87
2018-04-23T09:37:11.355Z,7.03
2018-04-23T09:39:39.605Z,9.40
2018-04-23T09:42:07.884Z,5.33
2018-04-23T09:44:36.319Z,18.70
2018-04-23T09:47:04.439Z,8.50
2018-04-23T09:49:32.861Z,6.07
2018-04-23T09:52:01.887Z,5.50
2018-04-23T09:54:30.166Z,6.10
2018-04-23T09:56:58.446Z,4.97
2018-04-23T09:59:26.706Z,6.10
2018-04-23T10:01:54.960Z,6.87
2018-04-23T10:04:23.247Z,7.30
2018-04-23T10:06:51.496Z,7.37
2018-04-23T10:09:20.533Z,12.10
2018-04-23T10:11:48.839Z,9.27
2018-04-23T10:14:17.089Z,7.73
2018-04-23T10:16:45.520Z,14.87
2018-04-23T10:19:14.671Z,7.40
2018-04-23T10:21:42.897Z,8.80
2018-04-23T10:24:12.749Z,9.57
2018-04-23T10:26:41.045Z,9.90
2018-04-23T10:29:09.294Z,8.77
2018-04-23T10:31:37.602Z,9.87
2018-04-23T10:34:05.859Z,8.67
2018-04-23T10:36:34.255Z,13.87
2018-04-23T10:39:02.597Z,11.67
2018-04-23T10:41:31.622Z,8.93
2018-04-23T10:43:59.898Z,13.00
2018-04-23T10:46:28.181Z,10.80
2018-04-23T10:48:56.464Z,14.40
2018-04-23T10:51:24.724Z,12.70
2018-04-23T10:53:52.989Z,10.13
2018-04-23T10:56:21.244Z,11.07
2018-04-23T10:58:49.657Z,10.43
2018-04-23T11:01:17.901Z,11.23
2018-04-23T11:03:46.161Z,8.17
2018-04-23T11:06:15.179Z,9.27
2018-04-23T11:08:43.429Z,9.70
2018-04-23T11:11:12.331Z,9.47
2018-04-23T11:13:40.586Z,11.67
2018-04-23T11:16:09.624Z,11.87
2018-04-23T11:18:38.191Z,11.00
2018-04-23T11:21:06.472Z,12.90
2018-04-23T11:23:34.724Z,10.13
2018-04-23T11:26:03.019Z,11.87
2018-04-23T11:28:31.263Z,11.80
2018-04-23T11:31:00.314Z,10.63
2018-04-23T11:33:28.608Z,9.73
2018-04-23T11:35:56.903Z,14.37
2018-04-23T11:38:25.277Z,13.80
2018-04-23T11:40:53.546Z,13.57
2018-04-23T11:43:21.826Z,12.23
2018-04-23T11:45:50.066Z,12.47
2018-04-23T11:48:18.363Z,13.17
2018-04-23T11:50:46.622Z,15.50
2018-04-23T11:53:14.886Z,13.80
2018-04-23T11:55:43.146Z,16.67
2018-04-23T11:58:11.407Z,12.80
2018-04-23T12:00:39.774Z,12.73
2018-04-23T12:03:08.130Z,19.60
2018-04-23T12:05:36.418Z,11.43
2018-04-23T12:08:04.772Z,13.87
2018-04-23T12:10:33.172Z,18.13
2018-04-23T12:13:02.304Z,15.60
2018-04-23T12:15:31.312Z,13.60
2018-04-23T12:17:59.595Z,16.80
2018-04-23T12:20:27.835Z,14.43
2018-04-23T12:22:56.892Z,14.73
2018-04-23T12:25:25.150Z,14.40
2018-04-23T12:27:53.407Z,18.63
2018-04-23T12:30:21.658Z,14.43
2018-04-23T12:32:50.716Z,12.37
2018-04-23T12:35:19.042Z,14.77
2018-04-23T12:37:47.315Z,14.70
2018-04-23T12:40:15.642Z,18.90
2018-04-23T12:42:43.957Z,22.30
2018-04-23T12:45:12.238Z,15.13
2018-04-23T12:47:41.272Z,15.37
2018-04-23T12:50:09.556Z,12.83
2018-04-23T12:52:37.810Z,13.17
2018-04-23T12:55:06.111Z,15.23
2018-04-23T12:57:34.456Z,17.10
2018-04-23T13:00:02.748Z,18.13
2018-04-23T13:02:31.027Z,16.63
2018-04-23T13:04:59.337Z,24.20
2018-04-23T13:07:27.631Z,26.07
2018-04-23T13:09:56.657Z,26.90
2018-04-23T13:12:24.936Z,18.70
2018-04-23T13:14:53.271Z,21.37
2018-04-23T13:17:21.568Z,14.23
2018-04-23T13:19:49.807Z,18.83
2018-04-23T13:22:18.151Z,16.10
2018-04-23T13:24:46.431Z,14.37
2018-04-23T13:27:14.689Z,14.77
2018-04-23T13:29:42.953Z,13.77
2018-04-23T13:32:11.264Z,12.10
2018-04-23T13:34:39.528Z,16.40
2018-04-23T13:37:07.851Z,9.90
2018-04-23T13:39:36.123Z,16.30
2018-04-23T13:42:04.444Z,14.27
2018-04-23T13:44:33.468Z,15.93
2018-04-23T13:47:01.739Z,17.27
2018-04-23T13:49:29.980Z,15.23
2018-04-23T13:51:59.016Z,15.70
2018-04-23T13:54:27.289Z,12.53
2018-04-23T13:56:55.562Z,14.53
2018-04-23T13:59:23.859Z,22.10
2018-04-23T14:01:52.144Z,11.30
2018-04-23T14:04:20.487Z,11.73
2018-04-23T14:06:48.905Z,13.97
2018-04-23T14:09:17.788Z,15.70
2018-04-23T14:11:46.060Z,16.67
2018-04-23T14:14:14.307Z,14.17
2018-04-23T14:16:42.617Z,13.73
2018-04-23T14:19:10.898Z,13.83
2018-04-23T14:21:39.154Z,14.87
2018-04-23T14:24:07.516Z,11.17
2018-04-23T14:26:36.629Z,13.77
2018-04-23T14:29:04.924Z,13.83
2018-04-23T14:31:33.202Z,13.57
2018-04-23T14:34:01.607Z,9.70
2018-04-23T14:36:29.881Z,17.30
2018-04-23T14:38:58.150Z,15.53
2018-04-23T14:41:26.489Z,10.17
2018-04-23T14:43:54.787Z,13.40
2018-04-23T14:46:23.083Z,9.40
2018-04-23T14:48:51.385Z,12.93
2018-04-23T14:51:20.395Z,12.37
2018-04-23T14:53:48.682Z,11.10
2018-04-23T14:56:16.959Z,10.63
2018-04-23T14:58:45.260Z,11.40
2018-04-23T15:01:13.492Z,9.80
2018-04-23T15:03:41.779Z,13.03
2018-04-23T15:06:10.122Z,12.53
2018-04-23T15:08:38.710Z,13.03
2018-04-23T15:11:07.738Z,11.93
2018-04-23T15:13:36.032Z,16.47
2018-04-23T15:16:04.274Z,17.03
2018-04-23T15:18:32.527Z,10.03
2018-04-23T15:21:01.593Z,12.67
2018-04-23T15:23:29.852Z,14.60
2018-04-23T15:25:58.131Z,13.83
2018-04-23T15:28:26.382Z,17.20
2018-04-23T15:30:54.651Z,11.63
2018-04-23T15:33:23.068Z,10.83
2018-04-23T15:35:51.317Z,14.43
2018-04-23T15:38:19.580Z,11.93
2018-04-23T15:40:47.885Z,9.17
2018-04-23T15:43:16.162Z,14.53
2018-04-23T15:45:44.423Z,11.87
2018-04-23T15:48:12.702Z,12.63
2018-04-23T15:50:40.968Z,16.07
2018-04-23T15:53:09.256Z,14.47
2018-04-23T15:55:37.526Z,11.37
2018-04-23T15:58:05.829Z,10.73
2018-04-23T16:00:34.843Z,14.00
2018-04-23T16:03:03.120Z,15.77
2018-04-23T16:05:31.367Z,12.20
2018-04-23T16:08:00.410Z,17.50
2018-04-23T16:10:29.483Z,14.10
2018-04-23T16:12:57.851Z,12.17
2018-04-23T16:15:26.105Z,13.17
2018-04-23T16:17:54.355Z,9.67
2018-04-23T16:20:22.661Z,16.77
2018-04-23T16:22:50.911Z,9.93
2018-04-23T16:25:19.212Z,9.80
2018-04-23T16:27:47.474Z,12.90
2018-04-23T16:30:15.779Z,9.43
2018-04-23T16:32:44.046Z,12.83
2018-04-23T16:35:12.329Z,11.10
2018-04-23T16:37:40.592Z,7.73
2018-04-23T16:40:08.869Z,8.37
2018-04-23T16:42:37.365Z,10.17
2018-04-23T16:45:05.613Z,7.87
2018-04-23T16:47:33.887Z,7.50
2018-04-23T16:50:02.135Z,16.67
2018-04-23T16:52:31.178Z,7.63
2018-04-23T16:54:59.615Z,8.63
2018-04-23T16:57:28.760Z,10.60
2018-04-23T16:59:57.022Z,9.83
2018-04-23T17:02:25.307Z,7.87
2018-04-23T17:04:53.586Z,8.27
2018-04-23T17:07:21.864Z,8.33
2018-04-23T17:09:50.165Z,10.00
2018-04-23T17:12:18.410Z,8.70
2018-04-23T17:14:46.696Z,12.87
2018-04-23T17:17:14.964Z,16.20
2018-04-23T17:19:44.022Z,10.40
2018-04-23T17:22:12.397Z,10.03
2018-04-23T17:24:41.557Z,10.80
2018-04-23T17:27:09.838Z,8.73
2018-04-23T17:29:38.123Z,14.10
2018-04-23T17:32:07.143Z,14.23
2018-04-23T17:34:35.418Z,12.57
2018-04-23T17:37:03.683Z,9.63
2018-04-23T17:39:32.721Z,16.13
2018-04-23T17:42:00.991Z,15.80
2018-04-23T17:44:29.271Z,10.60
2018-04-23T17:46:58.157Z,14.73
2018-04-23T17:49:26.404Z,9.97
2018-04-23T17:51:55.449Z,11.40
2018-04-23T17:54:23.715Z,15.00
2018-04-23T17:56:51.977Z,17.77
2018-04-23T17:59:20.237Z,12.87
2018-04-23T18:01:49.465Z,14.00
2018-04-23T18:04:17.763Z,11.50
2018-04-23T18:06:46.017Z,15.03
2018-04-23T18:09:14.321Z,13.70
2018-04-23T18:11:42.596Z,16.50
2018-04-23T18:14:10.855Z,14.77
2018-04-23T18:16:39.134Z,15.43
2018-04-23T18:19:08.857Z,18.73
2018-04-23T18:21:37.159Z,14.03
2018-04-23T18:24:06.213Z,9.53
2018-04-23T18:26:34.479Z,14.80
2018-04-23T18:29:02.755Z,16.63
2018-04-23T18:31:31.074Z,17.30
2018-04-23T18:33:59.345Z,15.53
2018-04-23T18:36:27.601Z,13.87
2018-04-23T18:38:55.895Z,16.70
2018-04-23T18:41:24.247Z,14.13
2018-04-23T18:43:52.530Z,18.23
2018-04-23T18:46:21.750Z,12.37
2018-04-23T18:48:50.033Z,13.43
2018-04-23T18:51:18.357Z,13.63
2018-04-23T18:53:46.677Z,14.60
2018-04-23T18:56:15.033Z,12.40
2018-04-23T18:58:43.318Z,17.37
2018-04-23T19:01:11.648Z,15.83
2018-04-23T19:03:40.684Z,19.97
2018-04-23T19:06:08.978Z,11.57
2018-04-23T19:08:38.128Z,13.93
2018-04-23T19:11:06.429Z,21.73
2018-04-23T19:13:34.767Z,14.10
2018-04-23T19:16:03.863Z,19.37
2018-04-23T19:18:32.156Z,19.60
2018-04-23T19:21:00.463Z,13.43
2018-04-23T19:23:28.773Z,17.93
2018-04-23T19:25:59.197Z,17.00
2018-04-23T19:28:27.517Z,15.37
2018-04-23T19:30:55.770Z,17.73
2018-04-23T19:33:24.282Z,17.97
2018-04-23T19:35:52.589Z,20.23
2018-04-23T19:38:20.910Z,20.30
2018-04-23T19:40:49.933Z,17.10
2018-04-23T19:43:18.261Z,19.27
2018-04-23T19:45:46.571Z,15.20
2018-04-23T19:48:14.895Z,18.33
2018-04-23T19:50:43.148Z,16.13
2018-04-23T19:53:11.438Z,18.30
2018-04-23T19:55:39.806Z,17.80
2018-04-23T19:58:08.125Z,15.87
2018-04-23T20:00:36.452Z,13.63
2018-04-23T20:03:05.508Z,14.80
2018-04-23T20:05:34.561Z,20.83
2018-04-23T20:08:02.845Z,11.40
2018-04-23T20:10:31.126Z,13.37
2018-04-23T20:12:59.390Z,10.53
2018-04-23T20:15:28.587Z,11.43
2018-04-23T20:17:56.899Z,14.20
2018-04-23T20:20:25.168Z,12.40
2018-04-23T20:22:53.467Z,15.27
2018-04-23T20:25:22.519Z,15.83
2018-04-23T20:27:50.756Z,16.33
2018-04-23T20:30:19.070Z,14.55
2018-04-23T20:32:47.455Z,12.77
2018-04-23T20:35:15.724Z,16.63
2018-04-23T20:37:44.005Z,15.17
2018-04-23T20:40:12.349Z,13.17
2018-04-23T20:42:40.641Z,17.70
2018-04-23T20:45:08.927Z,17.50
2018-04-23T20:47:37.208Z,17.97
2018-04-23T20:50:05.504Z,14.83
2018-04-23T20:52:33.804Z,11.57
2018-04-23T20:55:02.847Z,11.87
2018-04-23T20:57:31.178Z,10.90
2018-04-23T20:59:59.427Z,11.00
2018-04-23T21:02:27.755Z,12.90
2018-04-23T21:04:56.103Z,12.03
2018-04-23T21:07:24.385Z,12.83
2018-04-23T21:09:52.662Z,13.93
2018-04-23T21:12:20.903Z,11.90
2018-04-23T21:14:49.189Z,11.13
2018-04-23T21:17:17.469Z,10.63
2018-04-23T21:19:46.240Z,11.87
2018-04-23T21:22:14.582Z,11.23
2018-04-23T21:24:42.867Z,11.43
2018-04-23T21:27:11.138Z,14.73
2018-04-23T21:29:39.439Z,12.63
2018-04-23T21:32:07.713Z,13.67
2018-04-23T21:34:35.965Z,10.43
2018-04-23T21:37:04.293Z,15.97
2018-04-23T21:39:32.541Z,10.47
2018-04-23T21:42:00.835Z,10.63
2018-04-23T21:44:29.087Z,14.90
2018-04-23T21:46:57.383Z,13.77
2018-04-23T21:49:26.731Z,11.43
2018-04-23T21:51:55.009Z,14.60
2018-04-23T21:54:23.271Z,16.77
2018-04-23T21:56:52.347Z,15.23
2018-04-23T21:59:21.386Z,17.57
2018-04-23T22:01:49.672Z,13.20
2018-04-23T22:04:18.016Z,12.47
2018-04-23T22:06:47.052Z,9.27
2018-04-23T22:09:15.309Z,13.93
2018-04-23T22:11:44.125Z,12.03
2018-04-23T22:14:13.117Z,11.70
2018-04-23T22:16:41.394Z,19.13
2018-04-23T22:19:09.669Z,13.03
2018-04-23T22:21:38.059Z,14.10
2018-04-23T22:24:06.326Z,13.87
2018-04-23T22:26:34.586Z,19.27
2018-04-23T22:29:02.855Z,15.63
2018-04-23T22:31:31.112Z,11.97
2018-04-23T22:33:59.375Z,13.87
2018-04-23T22:36:27.638Z,13.17
2018-04-23T22:38:56.670Z,11.07
2018-04-23T22:41:24.951Z,10.93
2018-04-23T22:43:53.223Z,10.20
2018-04-23T22:46:21.518Z,10.83
2018-04-23T22:48:49.793Z,15.13
2018-04-23T22:51:18.067Z,12.60
2018-04-23T22:53:46.340Z,12.03
2018-04-23T22:56:14.596Z,11.47
2018-04-23T22:58:42.881Z,12.37
2018-04-23T23:01:11.204Z,12.77
2018-04-23T23:03:39.430Z,13.13
2018-04-23T23:06:07.717Z,11.40
2018-04-23T23:08:35.987Z,13.03
2018-04-23T23:11:04.315Z,12.23
2018-04-23T23:13:32.558Z,10.50
2018-04-23T23:16:00.873Z,8.37
2018-04-23T23:18:29.350Z,12.20
2018-04-23T23:20:57.637Z,10.00
2018-04-23T23:23:25.871Z,12.40
2018-04-23T23:25:54.151Z,12.33
2018-04-23T23:28:22.414Z,7.80
2018-04-23T23:30:50.719Z,11.47
2018-04-23T23:33:18.988Z,16.83
2018-04-23T23:35:47.296Z,16.67
2018-04-23T23:38:15.556Z,15.80
2018-04-23T23:40:43.936Z,15.50
2018-04-23T23:43:12.177Z,14.07
2018-04-23T23:45:40.459Z,14.50
2018-04-23T23:48:08.715Z,11.73
2018-04-23T23:50:37.195Z,16.63
2018-04-23T23:53:05.463Z,13.37
2018-04-23T23:55:33.711Z,14.97
2018-04-23T23:58:02.773Z,25.27
